Time;durP1;ratioP1;P1;durP2;ratioP2;P2;SDS_P1;SDS_P2;PMS_P1;PMS_P2;Temp;Humidity;BMP_temperature;BMP_pressure;BME280_temperature;BME280_humidity;BME280_pressure;Samples;Min_cycle;Max_cycle;Signal;HPM_P1;HPM_P2
2023/07/24 00:01:14;;;;;;;4.03;1.60;;;15.60;99.90;;;;;;5134659;27;20042;-43
2023/07/24 00:03:40;;;;;;;3.50;1.40;;;15.60;99.90;;;;;;5134334;27;20019;-51
2023/07/24 00:06:05;;;;;;;2.88;1.38;;;15.60;99.90;;;;;;5134699;27;20035;-48
2023/07/24 00:08:31;;;;;;;3.63;1.20;;;15.60;99.90;;;;;;5134433;27;20059;-45
2023/07/24 00:10:57;;;;;;;4.35;1.58;;;15.50;99.90;;;;;;5134279;27;20470;-50
2023/07/24 00:13:22;;;;;;;3.67;1.65;;;15.50;99.90;;;;;;5134318;27;20062;-43
2023/07/24 00:15:48;;;;;;;2.85;1.40;;;15.50;99.90;;;;;;5134014;27;20050;-48
2023/07/24 00:18:13;;;;;;;2.70;1.48;;;15.50;99.90;;;;;;5134018;27;20052;-51
2023/07/24 00:20:39;;;;;;;4.75;1.40;;;15.40;99.90;;;;;;5134158;27;20509;-48
2023/07/24 00:23:05;;;;;;;4.55;1.30;;;15.40;99.90;;;;;;5134149;27;20034;-42
2023/07/24 00:25:30;;;;;;;3.30;1.70;;;15.40;99.90;;;;;;5133968;27;20045;-41
2023/07/24 00:27:56;;;;;;;9.48;1.45;;;15.40;99.90;;;;;;5133967;27;20037;-42
2023/07/24 00:30:22;;;;;;;4.97;1.40;;;15.40;99.90;;;;;;5133949;27;20080;-44
2023/07/24 00:32:47;;;;;;;5.95;1.70;;;15.40;99.90;;;;;;5133902;27;20015;-42
2023/07/24 00:35:13;;;;;;;3.92;1.55;;;15.30;99.90;;;;;;5133851;27;20030;-51
2023/07/24 00:37:39;;;;;;;6.95;1.27;;;15.30;99.90;;;;;;5133758;27;20072;-50
2023/07/24 00:40:05;;;;;;;3.53;1.45;;;15.30;99.90;;;;;;5133666;27;20517;-46
2023/07/24 00:42:30;;;;;;;3.92;1.70;;;15.30;99.90;;;;;;5133610;27;20022;-52
2023/07/24 00:44:56;;;;;;;5.53;1.73;;;15.20;99.90;;;;;;5133534;27;20035;-51
2023/07/24 00:47:22;;;;;;;3.08;1.52;;;15.20;99.90;;;;;;5133673;27;20018;-43
2023/07/24 00:49:49;;;;;;;5.70;1.67;;;15.20;99.90;;;;;;5133828;27;20168;-50
2023/07/24 00:52:15;;;;;;;4.85;1.50;;;15.20;99.90;;;;;;5133583;27;20031;-47
2023/07/24 00:54:43;;;;;;;3.83;1.55;;;15.20;99.90;;;;;;5133713;27;20023;-53
2023/07/24 00:57:08;;;;;;;3.45;1.40;;;15.20;99.90;;;;;;5133170;27;20043;-45
2023/07/24 00:59:34;;;;;;;5.35;2.10;;;15.20;99.90;;;;;;5133561;27;20034;-50
2023/07/24 01:02:00;;;;;;;7.10;1.77;;;15.20;99.90;;;;;;5133058;27;20023;-46
2023/07/24 01:04:25;;;;;;;8.38;1.70;;;15.20;99.90;;;;;;5133243;27;20050;-46
2023/07/24 01:06:51;;;;;;;5.45;1.60;;;15.10;99.90;;;;;;5133430;27;20070;-52
2023/07/24 01:09:17;;;;;;;4.47;1.60;;;15.10;99.90;;;;;;5133117;27;20015;-45
2023/07/24 01:11:48;;;;;;;2.85;1.45;;;15.10;99.90;;;;;;5132986;27;20023;-48
2023/07/24 01:14:23;;;;;;;4.53;1.38;;;15.10;99.90;;;;;;5133223;27;20083;-49
2023/07/24 01:16:51;;;;;;;8.23;1.80;;;15.00;99.90;;;;;;5133296;27;20098;-44
2023/07/24 01:19:23;;;;;;;6.78;1.95;;;15.00;99.90;;;;;;5132823;27;20101;-46
2023/07/24 01:22:06;;;;;;;2.95;1.48;;;15.00;99.90;;;;;;5132999;27;20034;-54
2023/07/24 01:25:02;;;;;;;3.20;1.52;;;15.00;99.90;;;;;;5132806;27;20483;-49
2023/07/24 01:27:28;;;;;;;4.72;1.73;;;15.00;99.90;;;;;;5132974;27;20405;-52
2023/07/24 01:29:53;;;;;;;3.92;1.65;;;15.00;99.90;;;;;;5132784;27;20502;-50
2023/07/24 01:32:19;;;;;;;3.75;1.38;;;15.00;99.90;;;;;;5132764;27;20015;-45
2023/07/24 01:34:46;;;;;;;4.85;1.63;;;15.00;99.90;;;;;;5132531;27;20054;-46
2023/07/24 01:37:12;;;;;;;4.22;1.83;;;15.00;99.90;;;;;;5132775;27;20015;-51
2023/07/24 01:39:44;;;;;;;5.93;1.90;;;14.90;99.90;;;;;;5132643;27;20042;-46
2023/07/24 01:42:09;;;;;;;4.78;1.98;;;14.90;99.90;;;;;;5132390;27;20016;-49
2023/07/24 01:44:35;;;;;;;5.80;1.50;;;14.90;99.90;;;;;;5132578;27;20035;-44
2023/07/24 01:47:00;;;;;;;6.78;1.60;;;14.90;99.90;;;;;;5132281;27;20019;-46
2023/07/24 01:49:26;;;;;;;2.80;1.38;;;14.90;99.90;;;;;;5132201;27;20436;-49
2023/07/24 01:51:52;;;;;;;3.20;1.60;;;14.90;99.90;;;;;;5132120;27;20081;-49
2023/07/24 01:54:17;;;;;;;6.15;1.85;;;15.00;99.90;;;;;;5130910;27;20019;-47
2023/07/24 01:56:43;;;;;;;5.20;1.60;;;15.00;99.90;;;;;;5132082;27;20043;-45
2023/07/24 01:59:09;;;;;;;3.67;1.88;;;15.10;99.90;;;;;;5132162;27;20015;-45
2023/07/24 02:01:35;;;;;;;6.57;2.88;;;15.20;99.90;;;;;;5132212;27;20030;-43
2023/07/24 02:04:01;;;;;;;3.78;1.70;;;15.20;99.90;;;;;;5131667;27;20019;-45
2023/07/24 02:06:26;;;;;;;4.50;2.53;;;15.20;99.90;;;;;;5132035;27;20031;-49
2023/07/24 02:08:52;;;;;;;4.35;1.98;;;15.30;99.90;;;;;;5131806;27;20037;-51
2023/07/24 02:11:18;;;;;;;3.88;2.05;;;15.30;99.90;;;;;;5132086;27;20030;-43
2023/07/24 02:13:44;;;;;;;5.30;2.30;;;15.40;99.90;;;;;;5131255;27;20118;-47
2023/07/24 02:16:11;;;;;;;7.20;2.33;;;15.40;99.90;;;;;;5132007;27;20386;-48
2023/07/24 02:18:38;;;;;;;5.63;2.47;;;15.40;99.90;;;;;;5131688;27;20023;-43
2023/07/24 02:21:03;;;;;;;8.98;2.47;;;15.40;99.90;;;;;;5131835;27;20083;-43
2023/07/24 02:23:29;;;;;;;5.72;2.22;;;15.40;99.90;;;;;;5131637;27;20023;-43
2023/07/24 02:25:54;;;;;;;4.28;2.35;;;15.40;99.90;;;;;;5131637;27;20027;-46
2023/07/24 02:28:20;;;;;;;4.80;2.85;;;15.40;99.90;;;;;;5131757;27;20045;-42
2023/07/24 02:30:47;;;;;;;8.13;2.67;;;15.40;99.90;;;;;;5131366;27;20437;-45
2023/07/24 02:33:13;;;;;;;2.97;1.95;;;15.50;99.90;;;;;;5131530;27;20043;-50
2023/07/24 02:35:40;;;;;;;6.95;2.58;;;15.50;99.90;;;;;;5131403;27;20051;-49
2023/07/24 02:38:05;;;;;;;5.13;2.97;;;15.40;99.90;;;;;;5131572;27;20019;-51
2023/07/24 02:40:31;;;;;;;4.18;2.80;;;15.40;99.90;;;;;;5131682;27;20030;-50
2023/07/24 02:42:56;;;;;;;4.50;2.65;;;15.40;99.90;;;;;;5130194;27;20053;-53
2023/07/24 02:45:22;;;;;;;4.85;2.90;;;15.40;99.90;;;;;;5131428;27;20035;-48
2023/07/24 02:47:48;;;;;;;3.75;2.33;;;15.30;99.90;;;;;;5134963;27;20099;-44
2023/07/24 02:50:13;;;;;;;5.80;2.58;;;15.40;99.90;;;;;;5147634;27;20027;-44
2023/07/24 02:52:39;;;;;;;3.75;2.45;;;15.30;99.90;;;;;;5137566;27;20463;-45
2023/07/24 02:55:05;;;;;;;6.72;2.83;;;15.30;99.90;;;;;;5150856;27;20018;-42
2023/07/24 02:57:31;;;;;;;5.60;2.42;;;15.30;99.90;;;;;;5152089;27;20039;-42
2023/07/24 02:59:57;;;;;;;5.95;2.80;;;15.20;99.90;;;;;;5147412;27;20043;-48
2023/07/24 03:02:23;;;;;;;6.68;3.22;;;15.20;99.90;;;;;;5142034;27;20033;-44
2023/07/24 03:04:48;;;;;;;5.97;2.55;;;15.10;99.90;;;;;;5151924;27;20434;-46
2023/07/24 03:07:14;;;;;;;6.15;3.03;;;15.10;99.90;;;;;;5152251;27;20019;-51
2023/07/24 03:09:39;;;;;;;3.97;2.25;;;15.00;99.90;;;;;;5151959;27;20360;-47
2023/07/24 03:12:05;;;;;;;6.85;3.00;;;15.00;99.90;;;;;;5151917;27;20015;-52
2023/07/24 03:14:31;;;;;;;7.00;2.53;;;15.00;99.90;;;;;;5151855;27;20027;-50
2023/07/24 03:16:57;;;;;;;4.25;2.33;;;15.00;99.90;;;;;;5147671;27;20043;-47
2023/07/24 03:19:22;;;;;;;5.85;2.85;;;14.90;99.90;;;;;;5141385;27;20033;-50
2023/07/24 03:21:48;;;;;;;7.55;2.38;;;14.90;99.90;;;;;;5150379;27;20018;-42
2023/07/24 03:24:14;;;;;;;6.18;2.60;;;14.90;99.90;;;;;;5153743;27;20035;-46
2023/07/24 03:26:39;;;;;;;4.15;2.63;;;14.80;99.90;;;;;;5156196;27;20539;-51
2023/07/24 03:29:05;;;;;;;6.90;2.20;;;14.80;99.90;;;;;;5155814;27;20510;-46
2023/07/24 03:31:31;;;;;;;3.90;2.58;;;14.80;99.90;;;;;;5155848;27;20031;-46
2023/07/24 03:33:57;;;;;;;4.50;2.55;;;14.70;99.90;;;;;;5155764;27;20018;-47
2023/07/24 03:36:22;;;;;;;4.32;2.70;;;14.70;99.90;;;;;;5155706;27;20022;-44
2023/07/24 03:38:48;;;;;;;3.40;2.17;;;14.70;99.90;;;;;;5155494;27;20645;-47
2023/07/24 03:41:13;;;;;;;4.10;2.67;;;14.60;99.90;;;;;;5155559;27;20031;-51
2023/07/24 03:43:39;;;;;;;4.07;2.53;;;14.60;99.90;;;;;;5155485;27;20055;-45
2023/07/24 03:46:04;;;;;;;5.35;2.40;;;14.60;99.90;;;;;;5155053;27;20121;-43
2023/07/24 03:48:30;;;;;;;4.10;2.35;;;14.60;99.90;;;;;;5155449;27;20014;-49
2023/07/24 03:50:59;;;;;;;5.13;2.63;;;14.60;99.90;;;;;;5152536;27;20102;-48
2023/07/24 03:53:26;;;;;;;5.63;2.72;;;14.60;99.90;;;;;;5143956;27;20356;-52
2023/07/24 03:55:51;;;;;;;5.18;2.58;;;14.60;99.90;;;;;;5155123;27;20031;-49
2023/07/24 03:58:17;;;;;;;4.45;2.47;;;14.50;99.90;;;;;;5155042;27;20546;-46
2023/07/24 04:00:43;;;;;;;4.70;2.60;;;14.50;99.90;;;;;;5155069;27;20160;-46
2023/07/24 04:03:09;;;;;;;6.47;2.28;;;14.50;99.90;;;;;;5154919;27;20030;-42
2023/07/24 04:05:35;;;;;;;5.30;2.13;;;14.60;99.90;;;;;;5153723;27;20075;-42
2023/07/24 04:08:01;;;;;;;5.32;2.83;;;14.60;99.90;;;;;;5154810;27;20091;-43
2023/07/24 04:10:27;;;;;;;3.90;2.17;;;14.60;99.90;;;;;;5154996;27;20051;-46
2023/07/24 04:12:53;;;;;;;3.88;2.33;;;14.60;99.90;;;;;;5154891;27;20487;-52
2023/07/24 04:15:18;;;;;;;4.07;2.35;;;14.60;99.90;;;;;;5154741;27;20049;-45
2023/07/24 04:17:44;;;;;;;5.65;2.70;;;14.60;99.90;;;;;;5154756;27;20042;-43
2023/07/24 04:20:10;;;;;;;8.43;2.35;;;14.60;99.90;;;;;;5154620;27;20021;-48
2023/07/24 04:22:35;;;;;;;6.88;2.50;;;14.60;99.90;;;;;;5154829;27;20026;-49
2023/07/24 04:25:01;;;;;;;4.35;2.45;;;14.70;99.90;;;;;;5154354;27;20027;-43
2023/07/24 04:27:27;;;;;;;5.68;2.42;;;14.60;99.90;;;;;;5154554;27;20042;-49
2023/07/24 04:29:53;;;;;;;7.07;2.50;;;14.60;99.90;;;;;;5154348;27;20027;-52
2023/07/24 04:32:18;;;;;;;5.38;2.80;;;14.60;99.90;;;;;;5154693;27;20301;-43
2023/07/24 04:34:44;;;;;;;4.05;2.35;;;14.60;99.90;;;;;;5153568;27;20421;-49
2023/07/24 04:37:09;;;;;;;3.92;2.45;;;14.60;99.90;;;;;;5152650;27;20344;-47
2023/07/24 04:39:38;;;;;;;4.93;2.35;;;14.70;99.90;;;;;;5153562;27;20402;-46
2023/07/24 04:42:04;;;;;;;8.48;2.30;;;14.70;99.90;;;;;;5152951;27;20019;-44
2023/07/24 04:44:29;;;;;;;3.85;2.40;;;14.70;99.90;;;;;;5154079;27;20046;-52
2023/07/24 04:46:55;;;;;;;4.35;2.45;;;14.70;99.90;;;;;;5153951;27;20026;-47
2023/07/24 04:49:21;;;;;;;6.40;2.90;;;14.70;99.90;;;;;;5154426;27;20071;-49
2023/07/24 04:51:47;;;;;;;4.47;2.40;;;14.80;99.90;;;;;;5144362;27;20039;-46
2023/07/24 04:54:12;;;;;;;6.63;2.30;;;14.90;99.90;;;;;;5149508;27;20106;-46
2023/07/24 04:56:38;;;;;;;4.22;2.38;;;15.00;99.90;;;;;;5154038;27;20074;-43
2023/07/24 04:59:04;;;;;;;5.50;2.28;;;15.00;99.90;;;;;;5152612;27;20773;-47
2023/07/24 05:01:29;;;;;;;5.13;2.42;;;15.10;99.90;;;;;;5152994;27;20110;-43
2023/07/24 05:03:55;;;;;;;5.75;2.72;;;15.20;99.90;;;;;;5154081;27;20022;-48
2023/07/24 05:06:20;;;;;;;3.85;2.55;;;15.20;99.90;;;;;;5153820;27;20044;-43
2023/07/24 05:08:46;;;;;;;4.85;2.35;;;15.20;99.90;;;;;;5154071;27;20019;-48
2023/07/24 05:11:11;;;;;;;4.30;2.50;;;15.30;99.90;;;;;;5153875;27;20015;-49
2023/07/24 05:13:37;;;;;;;3.78;2.08;;;15.40;99.90;;;;;;5153870;27;20470;-51
2023/07/24 05:16:03;;;;;;;5.60;2.70;;;15.60;99.90;;;;;;5152657;27;20113;-46
2023/07/24 05:18:29;;;;;;;4.03;2.70;;;15.60;99.90;;;;;;5153401;27;20015;-42
2023/07/24 05:20:55;;;;;;;4.25;2.47;;;15.70;99.90;;;;;;5153074;27;20031;-43
2023/07/24 05:23:20;;;;;;;4.95;2.63;;;15.80;99.90;;;;;;5152746;27;20078;-43
2023/07/24 05:25:46;;;;;;;3.90;2.35;;;15.80;99.90;;;;;;5151425;27;20090;-42
2023/07/24 05:28:12;;;;;;;4.72;2.25;;;15.90;99.90;;;;;;5153400;27;20106;-47
2023/07/24 05:30:37;;;;;;;4.43;2.10;;;16.00;99.90;;;;;;5153502;27;20022;-43
2023/07/24 05:33:03;;;;;;;5.75;2.15;;;16.00;99.90;;;;;;5153656;27;20029;-52
2023/07/24 05:35:28;;;;;;;7.65;2.30;;;16.10;99.90;;;;;;5153273;27;20027;-45
2023/07/24 05:37:54;;;;;;;5.25;1.77;;;16.10;99.90;;;;;;5153358;27;20101;-42
2023/07/24 05:40:20;;;;;;;3.25;2.00;;;16.10;99.90;;;;;;5153232;27;20431;-49
2023/07/24 05:42:46;;;;;;;4.95;2.30;;;16.20;99.90;;;;;;5153289;27;20030;-42
2023/07/24 05:45:12;;;;;;;3.70;2.03;;;16.30;99.90;;;;;;5153177;27;20031;-45
2023/07/24 05:47:38;;;;;;;4.97;2.03;;;16.30;99.90;;;;;;5152368;27;20360;-45
2023/07/24 05:50:04;;;;;;;3.45;1.92;;;16.40;99.90;;;;;;5153158;27;20062;-48
2023/07/24 05:52:29;;;;;;;6.72;2.58;;;16.40;99.90;;;;;;5138317;27;20015;-47
2023/07/24 05:54:55;;;;;;;3.20;2.30;;;16.50;99.90;;;;;;5152997;27;20432;-43
2023/07/24 05:57:21;;;;;;;7.13;2.53;;;16.50;99.90;;;;;;5152801;27;20415;-44
2023/07/24 05:59:46;;;;;;;3.85;2.20;;;16.40;99.90;;;;;;5152804;27;20027;-46
2023/07/24 06:02:12;;;;;;;5.00;2.42;;;16.40;99.90;;;;;;5152793;27;20367;-44
2023/07/24 06:04:37;;;;;;;6.70;2.28;;;16.50;99.90;;;;;;5152605;27;20066;-42
2023/07/24 06:07:03;;;;;;;3.78;2.05;;;16.50;99.90;;;;;;5152214;27;20015;-44
2023/07/24 06:09:29;;;;;;;3.40;2.15;;;16.50;99.90;;;;;;5136657;27;20026;-42
2023/07/24 06:11:54;;;;;;;5.60;2.10;;;16.50;99.90;;;;;;5132048;27;20015;-42
2023/07/24 06:14:20;;;;;;;4.50;2.03;;;16.50;99.90;;;;;;5138470;27;20475;-45
2023/07/24 06:16:46;;;;;;;6.18;2.55;;;16.60;99.90;;;;;;5146479;27;20035;-47
2023/07/24 06:19:11;;;;;;;3.70;2.10;;;16.60;99.90;;;;;;5131116;27;20015;-47
2023/07/24 06:21:37;;;;;;;3.97;2.20;;;16.60;99.90;;;;;;5131112;27;20054;-48
2023/07/24 06:24:03;;;;;;;5.13;3.25;;;16.70;99.90;;;;;;5130952;27;20027;-44
2023/07/24 06:26:29;;;;;;;5.82;3.58;;;16.70;99.90;;;;;;5130531;27;20476;-44
2023/07/24 06:28:55;;;;;;;5.00;2.83;;;16.80;99.90;;;;;;5131635;27;20054;-45
2023/07/24 06:31:20;;;;;;;5.43;2.40;;;16.90;99.90;;;;;;5131694;27;20418;-44
2023/07/24 06:33:46;;;;;;;5.25;2.70;;;17.00;99.90;;;;;;5131729;27;20418;-44
2023/07/24 06:36:12;;;;;;;7.25;2.20;;;17.00;99.90;;;;;;5131622;27;20429;-48
2023/07/24 06:38:37;;;;;;;5.90;2.85;;;17.20;99.90;;;;;;5128056;27;20030;-55
2023/07/24 06:41:03;;;;;;;4.28;2.20;;;17.30;99.90;;;;;;5119537;27;20098;-49
2023/07/24 06:43:29;;;;;;;3.55;2.03;;;17.50;99.90;;;;;;5130157;27;20027;-45
2023/07/24 06:45:54;;;;;;;5.35;2.13;;;17.80;99.90;;;;;;5130612;27;20039;-43
2023/07/24 06:48:20;;;;;;;8.82;2.17;;;17.90;99.90;;;;;;5130517;27;20079;-52
2023/07/24 06:50:45;;;;;;;3.65;2.10;;;18.00;99.90;;;;;;5130738;27;20072;-43
2023/07/24 06:53:11;;;;;;;3.85;2.10;;;18.00;99.90;;;;;;5139761;27;20019;-49
2023/07/24 06:55:37;;;;;;;4.75;2.72;;;18.20;99.90;;;;;;5129995;27;20062;-45
2023/07/24 06:58:02;;;;;;;5.88;2.30;;;18.20;99.90;;;;;;5131268;27;20619;-51
2023/07/24 07:00:28;;;;;;;4.55;1.95;;;18.20;99.90;;;;;;5136987;27;20431;-45
2023/07/24 07:02:53;;;;;;;5.40;2.15;;;18.10;99.90;;;;;;5136728;27;20030;-43
2023/07/24 07:05:19;;;;;;;5.82;2.08;;;18.00;99.90;;;;;;5142874;27;20035;-43
2023/07/24 07:07:45;;;;;;;3.55;1.90;;;18.00;99.90;;;;;;5153656;27;20054;-49
2023/07/24 07:10:10;;;;;;;3.95;2.28;;;18.00;99.90;;;;;;5152744;27;20030;-55
2023/07/24 07:12:36;;;;;;;4.40;2.20;;;18.10;99.90;;;;;;5155370;27;20027;-43
2023/07/24 07:15:02;;;;;;;5.93;2.03;;;18.00;99.90;;;;;;5153901;27;20023;-49
2023/07/24 07:17:27;;;;;;;6.80;2.10;;;18.00;99.90;;;;;;5147465;27;20050;-51
2023/07/24 07:19:53;;;;;;;5.75;2.15;;;18.00;99.90;;;;;;5127856;27;20083;-49
2023/07/24 07:22:18;;;;;;;5.32;2.17;;;18.00;99.90;;;;;;5137901;27;20007;-51
2023/07/24 07:24:46;;;;;;;4.25;2.30;;;18.00;99.90;;;;;;5137929;27;20063;-45
2023/07/24 07:27:11;;;;;;;4.45;2.35;;;18.00;99.90;;;;;;5137955;27;20015;-45
2023/07/24 07:29:37;;;;;;;6.68;2.30;;;18.00;99.90;;;;;;5149812;27;20079;-50
2023/07/24 07:32:03;;;;;;;5.95;2.08;;;18.00;99.90;;;;;;5154366;27;20022;-57
2023/07/24 07:34:28;;;;;;;5.55;2.45;;;18.10;99.90;;;;;;5157763;27;20120;-49
2023/07/24 07:36:54;;;;;;;4.05;2.05;;;18.20;99.90;;;;;;5157375;27;20023;-52
2023/07/24 07:39:19;;;;;;;4.05;2.33;;;18.20;99.90;;;;;;5149178;27;20507;-45
2023/07/24 07:41:45;;;;;;;4.43;2.15;;;18.30;99.90;;;;;;5152382;27;20106;-43
2023/07/24 07:44:11;;;;;;;4.30;2.13;;;18.40;99.90;;;;;;5138715;27;20023;-45
2023/07/24 07:46:36;;;;;;;4.32;1.98;;;18.60;99.90;;;;;;5138893;27;20657;-45
2023/07/24 07:49:02;;;;;;;4.22;1.80;;;18.70;99.90;;;;;;5142602;27;20019;-55
2023/07/24 07:51:27;;;;;;;2.67;1.77;;;18.80;99.90;;;;;;5146402;27;20019;-45
2023/07/24 07:53:53;;;;;;;4.60;2.08;;;19.10;99.90;;;;;;5138687;27;20107;-50
2023/07/24 07:56:19;;;;;;;3.60;2.00;;;19.40;99.90;;;;;;5144528;27;20126;-52
2023/07/24 07:58:44;;;;;;;3.10;1.65;;;19.80;99.90;;;;;;5148800;27;20483;-50
2023/07/24 08:01:10;;;;;;;4.13;1.48;;;20.40;99.90;;;;;;5148611;27;20079;-47
2023/07/24 08:03:35;;;;;;;4.22;1.95;;;20.90;99.90;;;;;;5148248;27;20027;-47
2023/07/24 08:06:01;;;;;;;2.08;1.48;;;21.40;99.90;;;;;;5151945;27;20083;-48
2023/07/24 08:08:27;;;;;;;3.30;1.75;;;21.80;99.90;;;;;;5137337;27;20021;-49
2023/07/24 08:10:52;;;;;;;8.88;2.40;;;22.10;99.90;;;;;;5134948;27;20137;-50
2023/07/24 08:13:18;;;;;;;4.30;2.13;;;22.00;99.90;;;;;;5147537;27;20425;-48
2023/07/24 08:15:43;;;;;;;3.25;2.15;;;21.80;99.90;;;;;;5126326;27;20102;-46
2023/07/24 08:18:09;;;;;;;4.75;2.75;;;21.40;99.90;;;;;;5133891;27;20106;-47
2023/07/24 08:20:36;;;;;;;4.22;2.33;;;21.10;99.90;;;;;;5143716;27;20566;-46
2023/07/24 08:23:02;;;;;;;4.78;2.40;;;20.70;99.90;;;;;;5148843;27;20011;-47
2023/07/24 08:25:28;;;;;;;3.83;2.00;;;20.40;99.90;;;;;;5138790;27;20156;-49
2023/07/24 08:27:53;;;;;;;6.68;2.50;;;20.10;99.90;;;;;;5139270;27;20046;-48
2023/07/24 08:30:19;;;;;;;4.32;1.77;;;19.80;99.90;;;;;;5134925;27;20042;-52
2023/07/24 08:32:45;;;;;;;3.40;1.80;;;19.60;99.90;;;;;;5133870;27;20027;-50
2023/07/24 08:35:10;;;;;;;3.72;1.90;;;19.40;99.90;;;;;;5133817;27;20027;-45
2023/07/24 08:37:36;;;;;;;3.28;1.52;;;19.30;99.90;;;;;;5133640;27;20023;-43
2023/07/24 08:40:01;;;;;;;2.75;1.70;;;19.20;99.90;;;;;;5133519;27;20091;-43
2023/07/24 08:42:28;;;;;;;3.50;1.88;;;19.20;99.90;;;;;;5133652;27;20043;-42
2023/07/24 08:44:55;;;;;;;2.97;1.70;;;19.20;99.90;;;;;;5132190;27;20027;-48
2023/07/24 08:47:21;;;;;;;4.13;1.67;;;19.20;99.90;;;;;;5133670;27;20027;-54
2023/07/24 08:49:48;;;;;;;4.35;1.60;;;19.20;99.90;;;;;;5133578;27;20747;-45
2023/07/24 08:52:15;;;;;;;3.42;1.52;;;19.30;99.90;;;;;;5133638;27;20090;-51
2023/07/24 08:54:40;;;;;;;3.35;1.52;;;19.30;99.90;;;;;;5153500;27;20034;-52
2023/07/24 08:57:07;;;;;;;5.60;1.77;;;19.30;99.90;;;;;;5139645;27;20047;-43
2023/07/24 08:59:33;;;;;;;2.63;1.38;;;19.40;99.90;;;;;;5127715;27;20022;-53
2023/07/24 09:01:59;;;;;;;3.25;1.10;;;19.40;99.90;;;;;;5132604;27;20027;-47
2023/07/24 09:04:25;;;;;;;1.50;1.00;;;19.60;99.90;;;;;;5132118;27;20026;-43
2023/07/24 09:06:51;;;;;;;1.88;1.30;;;19.70;99.90;;;;;;5132214;27;20091;-49
2023/07/24 09:09:17;;;;;;;2.85;1.15;;;19.80;99.90;;;;;;5144386;27;20483;-46
2023/07/24 09:11:49;;;;;;;2.08;1.02;;;19.90;99.90;;;;;;5150521;27;20029;-50
2023/07/24 09:14:22;;;;;;;1.98;1.15;;;20.00;99.90;;;;;;5144425;27;20015;-49
2023/07/24 09:16:48;;;;;;;2.35;1.10;;;20.20;99.90;;;;;;5131612;27;20109;-44
2023/07/24 09:19:18;;;;;;;2.17;0.88;;;20.50;99.90;;;;;;5139117;27;20090;-44
2023/07/24 09:21:44;;;;;;;2.83;1.10;;;21.10;99.90;;;;;;5132912;27;20023;-50
2023/07/24 09:24:12;;;;;;;1.50;0.98;;;22.10;99.90;;;;;;5132772;27;20015;-50
2023/07/24 09:26:53;;;;;;;1.20;0.70;;;23.30;99.90;;;;;;5139362;27;20056;-44
2023/07/24 09:29:20;;;;;;;1.23;0.70;;;24.30;99.90;;;;;;5132785;27;20156;-50
2023/07/24 09:31:45;;;;;;;2.70;0.82;;;25.10;99.90;;;;;;5137675;27;20487;-47
2023/07/24 09:34:18;;;;;;;2.35;0.88;;;25.20;99.90;;;;;;5132375;27;20023;-46
2023/07/24 09:36:45;;;;;;;1.92;0.65;;;25.10;99.90;;;;;;5132111;27;20027;-49
2023/07/24 09:39:11;;;;;;;1.85;0.80;;;24.90;99.90;;;;;;5132677;27;20034;-55
2023/07/24 09:41:39;;;;;;;1.17;0.60;;;25.10;99.90;;;;;;5132562;27;20031;-47
2023/07/24 09:44:05;;;;;;;0.73;0.50;;;25.60;99.90;;;;;;5132573;27;20021;-52
2023/07/24 09:46:32;;;;;;;1.33;0.90;;;26.30;99.90;;;;;;5132207;27;20035;-46
2023/07/24 09:48:58;;;;;;;0.90;0.70;;;26.90;99.90;;;;;;5132612;27;20127;-46
2023/07/24 09:51:24;;;;;;;2.25;0.65;;;27.20;99.90;;;;;;5131308;27;20023;-47
2023/07/24 09:54:00;;;;;;;1.38;0.63;;;26.90;99.90;;;;;;5143107;27;20029;-51
2023/07/24 09:56:27;;;;;;;0.90;0.60;;;26.20;99.90;;;;;;5151022;27;20034;-52
2023/07/24 09:58:56;;;;;;;0.75;0.55;;;25.70;99.90;;;;;;5150904;27;20510;-51
2023/07/24 10:01:22;;;;;;;0.60;0.50;;;25.10;99.90;;;;;;5151166;27;20027;-46
2023/07/24 10:03:49;;;;;;;1.10;0.60;;;24.70;99.90;;;;;;5150954;27;20650;-46
2023/07/24 10:06:18;;;;;;;1.80;0.82;;;24.40;99.90;;;;;;5151296;27;20034;-46
2023/07/24 10:08:44;;;;;;;1.45;0.68;;;24.30;99.90;;;;;;5152931;27;20420;-45
2023/07/24 10:11:13;;;;;;;1.00;0.73;;;24.60;99.90;;;;;;5152670;27;20023;-47
2023/07/24 10:13:40;;;;;;;;;;;24.90;99.90;;;;;;5145357;27;20519;-42
2023/07/24 10:16:06;;;;;;;1.00;0.80;;;25.50;99.90;;;;;;5146338;27;19947;-45
2023/07/24 10:18:34;;;;;;;1.80;0.82;;;25.60;99.90;;;;;;5145713;27;20011;-43
2023/07/24 10:21:05;;;;;;;1.50;0.90;;;25.50;99.90;;;;;;5143144;27;20030;-45
2023/07/24 10:23:33;;;;;;;1.25;0.82;;;25.40;99.90;;;;;;5137731;27;20028;-45
2023/07/24 10:26:05;;;;;;;1.52;0.98;;;24.80;99.90;;;;;;5144631;27;20039;-43
2023/07/24 10:28:38;;;;;;;1.08;0.80;;;24.50;99.90;;;;;;5147827;27;20022;-47
2023/07/24 10:31:18;;;;;;;1.77;1.05;;;24.20;99.90;;;;;;5141059;27;20451;-50
2023/07/24 10:33:47;;;;;;;2.53;1.58;;;23.90;99.90;;;;;;5131017;27;20042;-49
2023/07/24 10:36:20;;;;;;;2.38;1.25;;;23.30;99.90;;;;;;5131198;27;20026;-44
2023/07/24 10:38:47;;;;;;;2.25;1.20;;;23.00;99.90;;;;;;5147810;27;20030;-45
2023/07/24 10:41:13;;;;;;;1.65;1.00;;;22.60;99.90;;;;;;5148683;27;20051;-46
2023/07/24 10:43:41;;;;;;;2.05;1.20;;;22.40;99.90;;;;;;5147178;27;20018;-49
2023/07/24 10:46:07;;;;;;;1.90;0.90;;;22.20;99.90;;;;;;5142701;27;20027;-42
2023/07/24 10:48:32;;;;;;;1.33;1.00;;;22.10;99.90;;;;;;5144479;27;20323;-45
2023/07/24 10:50:58;;;;;;;1.58;0.90;;;22.10;99.90;;;;;;5139936;27;20030;-48
2023/07/24 10:53:24;;;;;;;1.42;0.80;;;22.10;99.90;;;;;;5132416;27;20011;-43
2023/07/24 10:55:50;;;;;;;3.08;1.02;;;22.20;99.90;;;;;;5133973;27;20386;-46
2023/07/24 10:58:16;;;;;;;1.58;0.80;;;22.20;99.90;;;;;;5134822;27;20062;-46
2023/07/24 11:00:43;;;;;;;2.10;0.77;;;22.10;99.90;;;;;;5147805;27;20051;-49
2023/07/24 11:03:14;;;;;;;2.25;0.70;;;22.10;99.90;;;;;;5142543;27;20486;-50
2023/07/24 11:05:41;;;;;;;1.52;0.90;;;22.00;99.90;;;;;;5138328;27;20222;-41
2023/07/24 11:08:15;;;;;;;1.23;0.82;;;22.00;99.90;;;;;;5129918;27;20762;-50
2023/07/24 11:10:57;;;;;;;1.35;0.90;;;22.00;99.90;;;;;;5130753;27;20329;-44
2023/07/24 11:13:27;;;;;;;2.15;1.00;;;22.00;99.90;;;;;;5137348;27;20019;-47
2023/07/24 11:15:54;;;;;;;1.20;0.70;;;22.10;99.90;;;;;;5130829;27;20019;-53
2023/07/24 11:18:22;;;;;;;1.52;0.90;;;22.10;99.90;;;;;;5137155;27;20030;-50
2023/07/24 11:20:52;;;;;;;2.00;1.20;;;22.30;99.90;;;;;;5130943;27;20053;-48
2023/07/24 11:23:19;;;;;;;2.13;1.35;;;22.80;99.90;;;;;;5131151;27;20098;-49
2023/07/24 11:25:45;;;;;;;2.65;1.38;;;23.50;99.90;;;;;;5132414;27;20103;-43
2023/07/24 11:28:12;;;;;;;1.95;1.17;;;24.30;99.90;;;;;;5146711;27;20034;-47
2023/07/24 11:30:39;;;;;;;3.08;1.58;;;24.50;99.90;;;;;;5124623;27;20030;-49
2023/07/24 11:33:16;;;;;;;1.27;0.80;;;24.40;99.90;;;;;;5137318;27;20020;-49
2023/07/24 11:35:42;;;;;;;1.23;0.80;;;23.90;99.90;;;;;;5145732;27;20065;-42
2023/07/24 11:38:10;;;;;;;1.65;0.95;;;23.30;99.90;;;;;;5140127;27;20034;-45
2023/07/24 11:40:41;;;;;;;1.00;0.70;;;22.80;99.90;;;;;;5132795;27;20024;-53
2023/07/24 11:43:19;;;;;;;1.30;0.73;;;22.30;99.90;;;;;;5134842;27;20052;-46
2023/07/24 11:45:48;;;;;;;1.67;0.80;;;21.90;99.90;;;;;;5142260;27;20034;-45
2023/07/24 11:48:14;;;;;;;;;;;21.70;99.90;;;;;;5152142;27;20029;-43
2023/07/24 11:50:54;;;;;;;0.73;0.65;;;21.60;99.90;;;;;;5150173;27;20002;-49
2023/07/24 11:53:25;;;;;;;1.52;0.80;;;21.70;99.90;;;;;;5130940;27;20022;-47
2023/07/24 11:55:53;;;;;;;1.00;0.60;;;21.90;99.90;;;;;;5140783;27;20049;-51
2023/07/24 11:58:20;;;;;;;1.23;0.70;;;22.20;99.90;;;;;;5154123;27;20114;-45
2023/07/24 12:00:47;;;;;;;1.13;0.68;;;22.60;99.90;;;;;;5141585;27;20031;-43
2023/07/24 12:03:13;;;;;;;1.52;0.55;;;23.00;99.90;;;;;;5136426;27;20475;-42
2023/07/24 12:05:43;;;;;;;1.15;0.82;;;23.60;99.90;;;;;;5138028;27;20039;-43
2023/07/24 12:08:09;;;;;;;0.82;0.60;;;24.20;99.90;;;;;;5135883;27;20051;-46
2023/07/24 12:10:37;;;;;;;1.73;0.90;;;24.40;99.90;;;;;;5141526;27;20480;-43
2023/07/24 12:13:04;;;;;;;1.17;0.93;;;24.60;99.90;;;;;;5126076;27;20019;-44
2023/07/24 12:15:30;;;;;;;1.45;0.90;;;24.40;99.90;;;;;;5141455;27;20471;-46
2023/07/24 12:17:56;;;;;;;2.15;0.95;;;24.40;99.90;;;;;;5133865;27;20028;-43
2023/07/24 12:20:23;;;;;;;0.93;0.70;;;24.20;99.90;;;;;;5141008;27;20018;-42
2023/07/24 12:22:49;;;;;;;0.65;0.60;;;24.00;99.90;;;;;;5141314;27;20019;-46
2023/07/24 12:25:15;;;;;;;1.55;0.85;;;23.50;99.90;;;;;;5134045;27;20392;-43
2023/07/24 12:27:41;;;;;;;1.30;0.80;;;23.40;99.90;;;;;;5134269;27;20031;-45
2023/07/24 12:30:08;;;;;;;1.20;0.77;;;23.30;99.90;;;;;;5133770;27;20476;-44
2023/07/24 12:32:34;;;;;;;0.73;0.68;;;23.20;99.90;;;;;;5132830;27;20387;-42
2023/07/24 12:35:00;;;;;;;0.98;0.82;;;23.30;99.90;;;;;;5133579;27;20019;-41
2023/07/24 12:37:26;;;;;;;1.20;0.70;;;23.30;99.90;;;;;;5132823;27;20023;-41
2023/07/24 12:39:52;;;;;;;0.95;0.70;;;23.30;99.90;;;;;;5133703;27;20543;-44
2023/07/24 12:42:17;;;;;;;1.77;0.88;;;23.30;99.90;;;;;;5133864;27;20546;-44
2023/07/24 12:44:43;;;;;;;0.70;0.70;;;23.30;99.90;;;;;;5133840;27;20038;-51